createdAt,value
2023-01-17T00:02:18.971Z,98266.19
2023-01-17T00:05:40.848Z,98264.97
2023-01-17T00:09:01.948Z,98266.66
2023-01-17T00:12:07.122Z,98270.69
2023-01-17T00:15:10.140Z,98260.63
2023-01-17T00:18:13.281Z,98245.50
2023-01-17T00:21:34.677Z,98246.03
2023-01-17T00:24:56.104Z,98252.62
2023-01-17T00:27:58.882Z,98253.09
2023-01-17T00:31:02.033Z,98255.69
2023-01-17T00:34:04.636Z,98253.16
2023-01-17T00:37:07.267Z,98256.97
2023-01-17T00:40:10.388Z,98240.47
2023-01-17T00:43:33.790Z,98249.88
2023-01-17T00:46:54.780Z,98256.66
2023-01-17T00:50:15.908Z,98252.81
2023-01-17T00:53:37.134Z,98249.31
2023-01-17T00:56:59.203Z,98251.88
2023-01-17T01:00:19.992Z,98247.72
2023-01-17T01:03:40.984Z,98256.69
2023-01-17T01:07:01.970Z,98251.94
2023-01-17T01:10:23.511Z,98250.28
2023-01-17T01:13:46.559Z,98253.34
2023-01-17T01:17:08.008Z,98246.78
2023-01-17T01:20:29.794Z,98230.53
2023-01-17T01:23:51.354Z,98226.16
2023-01-17T01:27:12.396Z,98260.75
2023-01-17T01:30:33.938Z,98270.09
2023-01-17T01:33:36.673Z,98259.16
2023-01-17T01:36:39.524Z,98258.44
2023-01-17T01:39:41.723Z,98266.19
2023-01-17T01:42:58.752Z,98272.13
2023-01-17T01:46:01.295Z,98281.06
2023-01-17T01:49:16.546Z,98272.25
2023-01-17T01:52:24.011Z,98271.66
2023-01-17T01:55:34.309Z,98262.00
2023-01-17T01:58:45.518Z,98243.22
2023-01-17T02:01:51.494Z,98239.63
2023-01-17T02:04:54.365Z,98235.56
2023-01-17T02:08:04.875Z,98220.84
2023-01-17T02:11:07.567Z,98209.53
2023-01-17T02:14:19.329Z,98223.06
2023-01-17T02:17:32.532Z,98214.69
2023-01-17T02:21:13.048Z,98219.88
2023-01-17T02:24:21.741Z,98210.91
2023-01-17T02:27:28.463Z,98220.56
2023-01-17T02:30:39.538Z,98228.19
2023-01-17T02:33:52.468Z,98227.94
2023-01-17T02:37:07.720Z,98227.81
2023-01-17T02:40:17.528Z,98223.97
2023-01-17T02:43:23.385Z,98206.97
2023-01-17T02:46:26.115Z,98207.09
2023-01-17T02:49:31.898Z,98208.88
2023-01-17T02:52:36.926Z,98191.50
2023-01-17T02:55:48.870Z,98174.56
2023-01-17T02:59:16.833Z,98171.94
2023-01-17T03:02:38.087Z,98160.69
2023-01-17T03:05:49.897Z,98149.37
2023-01-17T03:08:53.346Z,98149.50
2023-01-17T03:11:55.893Z,98141.75
2023-01-17T03:14:58.899Z,98129.53
2023-01-17T03:18:05.843Z,98124.88
2023-01-17T03:21:09.045Z,98125.75
2023-01-17T03:24:11.670Z,98127.38
2023-01-17T03:27:14.347Z,98107.53
2023-01-17T03:30:17.748Z,98111.25
2023-01-17T03:33:20.612Z,98115.78
2023-01-17T03:36:22.908Z,98114.72
2023-01-17T03:39:25.670Z,98111.13
2023-01-17T03:42:28.412Z,98091.62
2023-01-17T03:45:31.022Z,98092.66
2023-01-17T03:48:33.824Z,98099.22
2023-01-17T03:51:36.455Z,98091.75
2023-01-17T03:54:39.564Z,98079.09
2023-01-17T03:57:42.307Z,98082.41
2023-01-17T04:00:45.184Z,98080.19
2023-01-17T04:03:47.962Z,98080.16
2023-01-17T04:06:50.570Z,98075.19
2023-01-17T04:09:53.395Z,98080.09
2023-01-17T04:12:56.202Z,98073.34
2023-01-17T04:15:59.703Z,98076.78
2023-01-17T04:19:02.357Z,98078.06
2023-01-17T04:22:05.100Z,98077.94
2023-01-17T04:25:07.727Z,98078.38
2023-01-17T04:28:10.972Z,98084.84
2023-01-17T04:31:16.855Z,98089.69
2023-01-17T04:34:19.976Z,98085.97
2023-01-17T04:37:22.333Z,98090.00
2023-01-17T04:40:26.548Z,98090.25
2023-01-17T04:43:29.013Z,98081.16
2023-01-17T04:46:32.112Z,98079.50
2023-01-17T04:49:34.784Z,98082.81
2023-01-17T04:52:37.613Z,98080.91
2023-01-17T04:55:39.942Z,98087.09
2023-01-17T04:58:43.427Z,98085.44
2023-01-17T05:01:49.210Z,98086.69
2023-01-17T05:04:54.271Z,98082.28
2023-01-17T05:07:58.094Z,98090.00
2023-01-17T05:11:00.688Z,98083.41
2023-01-17T05:14:03.150Z,98088.37
2023-01-17T05:17:05.787Z,98087.81
2023-01-17T05:20:09.030Z,98086.59
2023-01-17T05:23:11.978Z,98083.44
2023-01-17T05:26:14.405Z,98089.53
2023-01-17T05:29:17.299Z,98096.69
2023-01-17T05:32:19.799Z,98095.56
2023-01-17T05:35:25.837Z,98100.09
2023-01-17T05:38:28.396Z,98095.44
2023-01-17T05:41:30.921Z,98098.31
2023-01-17T05:44:33.258Z,98105.22
2023-01-17T05:47:36.315Z,98108.28
2023-01-17T05:50:38.716Z,98114.94
2023-01-17T05:53:41.333Z,98120.31
2023-01-17T05:56:43.864Z,98127.47
2023-01-17T05:59:46.524Z,98125.13
2023-01-17T06:02:49.359Z,98139.75
2023-01-17T06:05:51.924Z,98140.47
2023-01-17T06:08:54.232Z,98148.34
2023-01-17T06:11:57.168Z,98158.13
2023-01-17T06:15:00.087Z,98157.72
2023-01-17T06:18:11.857Z,98158.56
2023-01-17T06:21:14.438Z,98162.72
2023-01-17T06:24:17.869Z,98159.69
2023-01-17T06:27:20.207Z,98165.09
2023-01-17T06:30:23.094Z,98164.13
2023-01-17T06:33:25.820Z,98162.16
2023-01-17T06:36:28.362Z,98158.97
2023-01-17T06:39:30.578Z,98164.72
2023-01-17T06:42:33.812Z,98166.50
2023-01-17T06:45:36.335Z,98188.31
2023-01-17T06:48:38.843Z,98196.19
2023-01-17T06:51:43.781Z,98198.09
2023-01-17T06:54:47.103Z,98207.75
2023-01-17T06:57:50.938Z,98214.25
2023-01-17T07:00:53.713Z,98217.44
2023-01-17T07:03:58.818Z,98227.38
2023-01-17T07:07:03.910Z,98226.84
2023-01-17T07:10:06.423Z,98233.19
2023-01-17T07:13:09.593Z,98236.31
2023-01-17T07:16:12.169Z,98237.97
2023-01-17T07:19:15.084Z,98252.59
2023-01-17T07:22:17.385Z,98252.47
2023-01-17T07:25:20.232Z,98265.31
2023-01-17T07:28:23.383Z,98267.53
2023-01-17T07:31:26.106Z,98262.69
2023-01-17T07:34:28.409Z,98275.38
2023-01-17T07:37:30.992Z,98277.59
2023-01-17T07:40:38.704Z,98281.13
2023-01-17T07:43:46.018Z,98293.97
2023-01-17T07:46:49.581Z,98301.13
2023-01-17T07:49:52.666Z,98316.16
2023-01-17T07:52:56.423Z,98314.38
2023-01-17T07:56:07.665Z,98319.88
2023-01-17T07:59:09.905Z,98339.50
2023-01-17T08:02:18.203Z,98338.47
2023-01-17T08:05:20.742Z,98342.75
2023-01-17T08:08:23.048Z,98341.00
2023-01-17T08:11:26.147Z,98347.63
2023-01-17T08:14:28.469Z,98347.87
2023-01-17T08:17:31.628Z,98351.53
2023-01-17T08:20:34.299Z,98349.41
2023-01-17T08:23:36.785Z,98362.56
2023-01-17T08:26:39.206Z,98380.69
2023-01-17T08:29:46.931Z,98365.78
2023-01-17T08:32:49.376Z,98366.62
2023-01-17T08:35:55.597Z,98372.28
2023-01-17T08:38:58.021Z,98382.22
2023-01-17T08:42:00.601Z,98386.03
2023-01-17T08:45:05.975Z,98387.69
2023-01-17T08:48:08.708Z,98404.97
2023-01-17T08:51:11.791Z,98411.94
2023-01-17T08:54:15.477Z,98410.22
2023-01-17T08:57:17.702Z,98411.84
2023-01-17T09:00:20.751Z,98411.44
2023-01-17T09:03:23.117Z,98412.44
2023-01-17T09:06:25.766Z,98408.78
2023-01-17T09:09:28.019Z,98401.03
2023-01-17T09:12:34.282Z,98400.00
2023-01-17T09:15:37.236Z,98403.19
2023-01-17T09:18:39.864Z,98405.19
2023-01-17T09:21:43.435Z,98413.72
2023-01-17T09:24:46.006Z,98411.44
2023-01-17T09:27:49.464Z,98410.97
2023-01-17T09:30:52.352Z,98409.72
2023-01-17T09:33:55.870Z,98414.44
2023-01-17T09:36:58.664Z,98424.00
2023-01-17T09:40:00.853Z,98433.91
2023-01-17T09:43:11.393Z,98428.53
2023-01-17T09:46:22.738Z,98444.00
2023-01-17T09:49:43.296Z,98455.28
2023-01-17T09:52:49.396Z,98463.50
2023-01-17T09:56:01.263Z,98471.22
2023-01-17T09:59:09.411Z,98466.78
2023-01-17T10:02:21.215Z,98459.03
2023-01-17T10:06:01.736Z,98468.25
2023-01-17T10:09:22.442Z,98473.91
2023-01-17T10:12:39.664Z,98480.56
2023-01-17T10:16:11.672Z,98491.87
2023-01-17T10:19:23.285Z,98472.94
2023-01-17T10:22:38.586Z,98481.78
2023-01-17T10:25:48.609Z,98485.09
2023-01-17T10:28:55.367Z,98486.50
2023-01-17T10:32:02.354Z,98470.63
2023-01-17T10:35:18.436Z,98481.53
2023-01-17T10:38:28.101Z,98486.31
2023-01-17T10:41:37.572Z,98473.09
2023-01-17T10:44:53.283Z,98464.59
2023-01-17T10:48:08.738Z,98454.88
2023-01-17T10:51:31.354Z,98438.47
2023-01-17T10:54:39.457Z,98442.06
2023-01-17T10:57:47.592Z,98446.50
2023-01-17T11:00:59.999Z,98447.53
2023-01-17T11:04:03.497Z,98435.94
2023-01-17T11:07:14.022Z,98425.84
2023-01-17T11:10:40.183Z,98417.97
2023-01-17T11:13:45.259Z,98408.03
2023-01-17T11:17:00.778Z,98400.00
2023-01-17T11:20:35.336Z,98411.47
2023-01-17T11:23:41.643Z,98396.38
2023-01-17T11:26:49.449Z,98406.91
2023-01-17T11:30:18.537Z,98403.31
2023-01-17T11:34:06.804Z,98401.66
2023-01-17T11:37:16.732Z,98387.81
2023-01-17T11:40:27.508Z,98374.09
2023-01-17T11:43:30.448Z,98381.31
2023-01-17T11:46:33.179Z,98373.12
2023-01-17T11:49:36.398Z,98366.66
2023-01-17T11:52:39.096Z,98364.75
2023-01-17T11:56:17.105Z,98373.69
2023-01-17T11:59:28.687Z,98370.78
2023-01-17T12:02:31.932Z,98390.66
2023-01-17T12:06:09.207Z,98396.53
2023-01-17T12:09:27.546Z,98409.69
2023-01-17T12:12:58.509Z,98401.66
2023-01-17T12:16:35.601Z,98410.81
2023-01-17T12:20:04.898Z,98402.91
2023-01-17T12:23:31.839Z,98406.59
2023-01-17T12:26:42.107Z,98405.88
2023-01-17T12:30:11.737Z,98392.31
2023-01-17T12:33:45.900Z,98390.13
2023-01-17T12:36:58.387Z,98392.94
2023-01-17T12:40:08.597Z,98398.16
2023-01-17T12:43:32.898Z,98400.97
2023-01-17T12:46:41.609Z,98397.97
2023-01-17T12:49:58.359Z,98395.31
2023-01-17T12:53:16.322Z,98401.16
2023-01-17T12:56:29.009Z,98396.06
2023-01-17T12:59:44.811Z,98395.03
2023-01-17T13:02:59.323Z,98390.66
2023-01-17T13:06:03.400Z,98395.41
2023-01-17T13:09:05.772Z,98391.59
2023-01-17T13:12:15.128Z,98387.78
2023-01-17T13:15:22.859Z,98375.75
2023-01-17T13:18:29.524Z,98388.09
2023-01-17T13:21:34.045Z,98395.75
2023-01-17T13:25:02.170Z,98400.81
2023-01-17T13:28:43.181Z,98405.16
2023-01-17T13:31:51.689Z,98401.34
2023-01-17T13:35:13.409Z,98403.72
2023-01-17T13:38:43.608Z,98393.09
2023-01-17T13:41:51.410Z,98390.22
2023-01-17T13:44:54.063Z,98383.59
2023-01-17T13:48:12.295Z,98379.56
2023-01-17T13:51:15.034Z,98374.75
2023-01-17T13:54:31.287Z,98383.06
2023-01-17T13:57:42.069Z,98369.50
2023-01-17T14:00:44.780Z,98365.22
2023-01-17T14:03:57.401Z,98353.84
2023-01-17T14:07:03.835Z,98342.75
2023-01-17T14:10:24.509Z,98340.41
2023-01-17T14:13:53.105Z,98330.72
2023-01-17T14:17:29.279Z,98305.34
2023-01-17T14:20:45.034Z,98304.69
2023-01-17T14:24:11.045Z,98299.56
2023-01-17T14:27:24.126Z,98294.03
2023-01-17T14:30:37.146Z,98295.97
2023-01-17T14:33:41.035Z,98288.34
2023-01-17T14:36:44.125Z,98270.87
2023-01-17T14:39:48.774Z,98266.19
2023-01-17T14:43:02.237Z,98253.16
2023-01-17T14:46:34.471Z,98264.78
2023-01-17T14:49:37.409Z,98264.50
2023-01-17T14:52:39.932Z,98265.34
2023-01-17T14:55:47.660Z,98250.53
2023-01-17T15:00:00.791Z,98241.37
2023-01-17T15:03:05.325Z,98239.72
2023-01-17T15:06:15.999Z,98237.38
2023-01-17T15:09:23.064Z,98249.28
2023-01-17T15:12:25.439Z,98253.28
2023-01-17T15:15:31.816Z,98251.34
2023-01-17T15:18:42.387Z,98257.88
2023-01-17T15:21:47.958Z,98254.69
2023-01-17T15:24:50.620Z,98248.87
2023-01-17T15:27:53.262Z,98244.44
2023-01-17T15:31:11.633Z,98230.72
2023-01-17T15:34:28.311Z,98232.66
2023-01-17T15:37:36.317Z,98234.31
2023-01-17T15:40:43.778Z,98229.59
2023-01-17T15:43:46.292Z,98225.31
2023-01-17T15:46:49.042Z,98225.19
2023-01-17T15:49:52.117Z,98213.53
2023-01-17T15:53:01.027Z,98207.03
2023-01-17T15:56:22.136Z,98201.09
2023-01-17T15:59:42.930Z,98200.81
2023-01-17T16:02:47.387Z,98194.03
2023-01-17T16:05:52.268Z,98189.50
2023-01-17T16:08:54.571Z,98190.31
2023-01-17T16:11:57.067Z,98186.13
2023-01-17T16:15:11.775Z,98178.22
2023-01-17T16:18:23.929Z,98182.66
2023-01-17T16:21:28.909Z,98182.97
2023-01-17T16:24:32.039Z,98181.59
2023-01-17T16:27:34.866Z,98181.75
2023-01-17T16:30:38.532Z,98176.91
2023-01-17T16:33:42.169Z,98164.47
2023-01-17T16:36:44.802Z,98164.59
2023-01-17T16:39:47.103Z,98157.97
2023-01-17T16:42:49.871Z,98152.97
2023-01-17T16:45:55.486Z,98153.38
2023-01-17T16:49:02.043Z,98157.53
2023-01-17T16:52:04.535Z,98148.97
2023-01-17T16:55:12.671Z,98139.81
2023-01-17T16:58:15.351Z,98132.19
2023-01-17T17:01:20.896Z,98144.06
2023-01-17T17:04:23.498Z,98139.63
2023-01-17T17:07:26.181Z,98131.19
2023-01-17T17:10:28.399Z,98133.41
2023-01-17T17:13:34.919Z,98128.03
2023-01-17T17:16:39.001Z,98116.13
2023-01-17T17:19:41.995Z,98111.97
2023-01-17T17:22:50.272Z,98110.19
2023-01-17T17:25:56.607Z,98096.66
2023-01-17T17:28:58.953Z,98095.00
2023-01-17T17:32:01.537Z,98086.28
2023-01-17T17:35:04.172Z,98075.38
2023-01-17T17:38:06.833Z,98075.91
2023-01-17T17:41:09.834Z,98078.00
2023-01-17T17:44:12.719Z,98067.50
2023-01-17T17:47:16.128Z,98061.97
2023-01-17T17:50:18.811Z,98036.00
2023-01-17T17:53:21.725Z,98032.53
2023-01-17T17:56:24.454Z,98027.84
2023-01-17T17:59:27.124Z,98032.97
2023-01-17T18:02:30.138Z,98028.00
2023-01-17T18:05:33.148Z,98006.56
2023-01-17T18:08:37.156Z,97985.84
2023-01-17T18:11:41.559Z,97976.19
2023-01-17T18:14:44.541Z,97965.53
2023-01-17T18:17:48.565Z,97969.12
2023-01-17T18:20:52.485Z,97945.66
2023-01-17T18:23:59.047Z,97939.84
2023-01-17T18:27:01.732Z,97940.53
2023-01-17T18:30:05.072Z,97924.50
2023-01-17T18:33:07.434Z,97922.56
2023-01-17T18:36:11.943Z,97919.41
2023-01-17T18:39:18.174Z,97914.56
2023-01-17T18:42:23.223Z,97920.37
2023-01-17T18:45:25.915Z,97910.84
2023-01-17T18:48:28.803Z,97911.69
2023-01-17T18:51:33.338Z,97895.94
2023-01-17T18:54:36.053Z,97889.56
2023-01-17T18:57:38.589Z,97895.94
2023-01-17T19:00:42.150Z,97889.28
2023-01-17T19:03:47.670Z,97868.84
2023-01-17T19:06:53.391Z,97849.16
2023-01-17T19:09:56.068Z,97858.63
2023-01-17T19:12:59.022Z,97847.34
2023-01-17T19:16:04.185Z,97846.78
2023-01-17T19:19:11.499Z,97830.50
2023-01-17T19:22:13.743Z,97818.22
2023-01-17T19:25:16.298Z,97809.53
2023-01-17T19:28:19.344Z,97804.84
2023-01-17T19:31:25.048Z,97808.97
2023-01-17T19:34:28.150Z,97800.69
2023-01-17T19:37:31.489Z,97793.78
2023-01-17T19:40:33.890Z,97794.62
2023-01-17T19:43:37.347Z,97791.03
2023-01-17T19:46:40.034Z,97786.47
2023-01-17T19:49:44.406Z,97758.31
2023-01-17T19:52:46.498Z,97744.94
2023-01-17T19:55:49.797Z,97730.59
2023-01-17T19:58:53.130Z,97745.06
2023-01-17T20:01:56.926Z,97728.66
2023-01-17T20:04:59.547Z,97727.41
2023-01-17T20:08:02.437Z,97715.03
2023-01-17T20:11:14.782Z,97723.41
2023-01-17T20:14:17.932Z,97718.34
2023-01-17T20:17:21.439Z,97721.09
2023-01-17T20:20:23.844Z,97738.06
2023-01-17T20:23:26.430Z,97734.34
2023-01-17T20:26:34.999Z,97729.78
2023-01-17T20:29:40.647Z,97725.09
2023-01-17T20:32:43.335Z,97727.16
2023-01-17T20:35:46.270Z,97703.28
2023-01-17T20:38:48.979Z,97695.03
2023-01-17T20:41:52.056Z,97687.16
2023-01-17T20:44:55.328Z,97672.28
2023-01-17T20:47:58.698Z,97651.03
2023-01-17T20:51:10.625Z,97653.37
2023-01-17T20:54:16.883Z,97693.34
2023-01-17T20:57:19.795Z,97719.66
2023-01-17T21:00:22.629Z,97720.06
2023-01-17T21:03:28.889Z,97688.25
2023-01-17T21:06:31.723Z,97631.19
2023-01-17T21:09:34.147Z,97605.69
2023-01-17T21:12:37.316Z,97617.22
2023-01-17T21:15:48.196Z,97658.53
2023-01-17T21:18:51.888Z,97667.63
2023-01-17T21:21:56.197Z,97659.50
2023-01-17T21:24:59.938Z,97640.25
2023-01-17T21:28:03.167Z,97619.97
2023-01-17T21:31:20.405Z,97615.41
2023-01-17T21:34:25.316Z,97610.03
2023-01-17T21:37:29.009Z,97610.44
2023-01-17T21:40:32.832Z,97592.69
2023-01-17T21:43:35.680Z,97578.53
2023-01-17T21:46:39.826Z,97578.75
2023-01-17T21:49:42.816Z,97587.84
2023-01-17T21:52:47.247Z,97569.66
2023-01-17T21:56:09.461Z,97573.06
2023-01-17T21:59:11.720Z,97578.88
2023-01-17T22:02:14.328Z,97576.56
2023-01-17T22:05:18.454Z,97569.50
2023-01-17T22:08:20.984Z,97571.81
2023-01-17T22:11:26.369Z,97563.16
2023-01-17T22:14:28.720Z,97554.31
2023-01-17T22:17:31.370Z,97558.72
2023-01-17T22:20:34.224Z,97554.75
2023-01-17T22:23:37.489Z,97548.38
2023-01-17T22:26:41.813Z,97546.19
2023-01-17T22:29:44.541Z,97546.06
2023-01-17T22:32:46.720Z,97536.97
2023-01-17T22:36:00.058Z,97529.53
2023-01-17T22:39:02.376Z,97550.16
2023-01-17T22:42:06.554Z,97557.75
2023-01-17T22:45:10.321Z,97555.44
2023-01-17T22:48:12.956Z,97574.72
2023-01-17T22:51:17.709Z,97580.62
2023-01-17T22:54:20.934Z,97573.06
2023-01-17T22:57:24.031Z,97573.22
2023-01-17T23:00:26.710Z,97570.88
2023-01-17T23:03:29.476Z,97566.50
2023-01-17T23:06:37.895Z,97556.16
2023-01-17T23:09:40.493Z,97572.38
2023-01-17T23:12:43.282Z,97583.56
2023-01-17T23:16:04.631Z,97581.50
2023-01-17T23:19:23.851Z,97581.28
2023-01-17T23:22:29.858Z,97599.84
2023-01-17T23:25:32.759Z,97585.25
2023-01-17T23:28:35.180Z,97584.72
2023-01-17T23:31:38.587Z,97595.19
2023-01-17T23:34:40.914Z,97611.97
2023-01-17T23:38:03.237Z,97609.25
2023-01-17T23:41:26.351Z,97598.63
2023-01-17T23:44:31.799Z,97600.72
2023-01-17T23:47:34.406Z,97595.75
2023-01-17T23:50:39.166Z,97596.44
2023-01-17T23:53:42.502Z,97588.31
2023-01-17T23:56:45.279Z,97597.72
2023-01-17T23:59:48.000Z,97610.94
